Time;durP1;ratioP1;P1;durP2;ratioP2;P2;SDS_P1;SDS_P2;PMS_P1;PMS_P2;Temp;Humidity;BMP_temperature;BMP_pressure;BME280_temperature;BME280_humidity;BME280_pressure;Samples;Min_cycle;Max_cycle;Signal;HPM_P1;HPM_P2
2021/10/15 00:00:37;;;;;;;12.07;3.05;;;13.80;99.90;;;;;;5097333;28;20122;-82
2021/10/15 00:03:03;;;;;;;12.70;4.03;;;13.80;99.90;;;;;;5112902;28;20051;-82
2021/10/15 00:05:29;;;;;;;11.45;2.88;;;13.80;99.90;;;;;;5100722;28;20040;-82
2021/10/15 00:07:55;;;;;;;10.15;3.40;;;13.90;99.90;;;;;;5097424;28;20067;-82
2021/10/15 00:10:21;;;;;;;11.80;3.33;;;13.80;99.90;;;;;;5114059;28;20557;-82
2021/10/15 00:12:46;;;;;;;10.63;3.70;;;13.80;99.90;;;;;;5126214;27;20043;-82
2021/10/15 00:15:12;;;;;;;9.70;2.95;;;13.70;99.90;;;;;;5087327;28;21079;-82
2021/10/15 00:17:38;;;;;;;8.25;3.10;;;13.70;99.90;;;;;;5109681;27;20051;-81
2021/10/15 00:20:05;;;;;;;9.32;2.63;;;13.70;99.90;;;;;;5080105;27;20046;-82
2021/10/15 00:22:31;;;;;;;9.88;2.30;;;13.70;99.90;;;;;;5099375;28;20039;-82
2021/10/15 00:24:56;;;;;;;15.60;2.78;;;13.70;99.90;;;;;;5139414;27;20040;-82
2021/10/15 00:27:22;;;;;;;12.00;2.95;;;13.70;99.90;;;;;;5094241;27;20035;-82
2021/10/15 00:29:48;;;;;;;9.82;2.90;;;13.80;99.90;;;;;;5113894;27;20050;-82
2021/10/15 00:32:14;;;;;;;8.80;3.25;;;13.80;99.90;;;;;;5111224;27;20058;-82
2021/10/15 00:34:39;;;;;;;13.40;2.85;;;13.80;99.90;;;;;;5093060;28;20043;-82
2021/10/15 00:37:06;;;;;;;12.43;3.00;;;13.80;99.90;;;;;;5077013;28;20475;-82
2021/10/15 00:39:31;;;;;;;11.00;3.03;;;13.80;99.90;;;;;;5110685;28;20090;-82
2021/10/15 00:41:57;;;;;;;12.48;2.63;;;13.80;99.90;;;;;;5127491;27;20120;-82
2021/10/15 00:44:23;;;;;;;10.80;2.70;;;13.80;99.90;;;;;;5124695;27;20039;-82
2021/10/15 00:46:49;;;;;;;10.80;3.80;;;13.80;99.90;;;;;;5096857;27;20039;-82
2021/10/15 00:49:15;;;;;;;17.83;3.28;;;13.80;99.90;;;;;;5080013;28;20040;-81
2021/10/15 00:51:43;;;;;;;12.18;3.25;;;13.90;99.90;;;;;;5110160;28;20035;-82
2021/10/15 00:54:15;;;;;;;9.43;3.00;;;13.90;99.90;;;;;;5123645;27;20043;-82
2021/10/15 00:56:43;;;;;;;12.32;3.80;;;13.90;99.90;;;;;;5106396;28;20044;-82
2021/10/15 00:59:09;;;;;;;14.18;3.55;;;13.90;99.90;;;;;;5093494;28;20040;-82
2021/10/15 01:01:35;;;;;;;11.13;2.88;;;13.90;99.90;;;;;;5092951;28;20525;-82
2021/10/15 01:04:02;;;;;;;7.90;2.75;;;13.90;99.90;;;;;;5115147;27;20047;-82
2021/10/15 01:06:29;;;;;;;10.43;2.75;;;13.90;99.90;;;;;;5110362;28;20042;-82
2021/10/15 01:08:55;;;;;;;13.07;3.05;;;13.80;99.90;;;;;;5118864;27;20044;-82
2021/10/15 01:11:22;;;;;;;10.70;4.25;;;13.80;99.90;;;;;;5124564;27;20051;-82
2021/10/15 01:13:48;;;;;;;13.93;2.75;;;13.80;99.90;;;;;;5121034;27;20043;-82
2021/10/15 01:16:15;;;;;;;14.68;2.90;;;13.80;99.90;;;;;;5104775;28;20059;-82
2021/10/15 01:18:43;;;;;;;14.77;3.05;;;13.80;99.90;;;;;;5112775;27;20039;-82
2021/10/15 01:21:10;;;;;;;14.40;3.38;;;13.80;99.90;;;;;;5113171;27;20478;-82
2021/10/15 01:23:37;;;;;;;10.88;2.90;;;13.80;99.90;;;;;;5085133;27;20074;-81
2021/10/15 01:26:04;;;;;;;17.77;3.50;;;13.80;99.90;;;;;;5095511;27;20494;-82
2021/10/15 01:28:31;;;;;;;11.48;3.10;;;13.80;99.90;;;;;;5076215;28;20124;-82
2021/10/15 01:30:57;;;;;;;11.70;3.20;;;13.80;99.90;;;;;;5128685;27;20529;-82
2021/10/15 01:33:23;;;;;;;8.60;4.03;;;13.80;99.90;;;;;;5119617;27;20044;-82
2021/10/15 01:35:49;;;;;;;14.70;3.67;;;13.90;99.90;;;;;;5106214;28;20070;-82
2021/10/15 01:38:16;;;;;;;16.30;4.22;;;13.90;99.90;;;;;;5126337;27;20451;-82
2021/10/15 01:40:42;;;;;;;14.43;4.20;;;13.90;99.90;;;;;;5143080;27;20093;-82
2021/10/15 01:43:08;;;;;;;15.93;4.60;;;13.90;99.90;;;;;;5118203;27;20052;-81
2021/10/15 01:45:34;;;;;;;21.08;4.72;;;13.90;99.90;;;;;;5100737;28;20048;-82
2021/10/15 01:48:01;;;;;;;12.02;3.80;;;13.90;99.90;;;;;;5109265;28;20395;-82
2021/10/15 01:50:28;;;;;;;17.05;4.65;;;13.90;99.90;;;;;;5138248;27;20123;-82
2021/10/15 01:52:55;;;;;;;19.88;4.90;;;13.90;99.90;;;;;;5120556;27;20051;-82
2021/10/15 01:55:21;;;;;;;14.05;3.75;;;13.90;99.90;;;;;;5100783;28;20047;-82
2021/10/15 01:57:47;;;;;;;27.88;5.45;;;14.00;99.90;;;;;;5099479;28;20080;-82
2021/10/15 02:00:15;;;;;;;17.63;4.30;;;14.00;99.90;;;;;;5119916;27;20086;-82
2021/10/15 02:02:43;;;;;;;19.80;4.68;;;14.00;99.90;;;;;;5111567;27;20074;-82
2021/10/15 02:05:11;;;;;;;19.58;4.20;;;14.00;99.90;;;;;;5092098;27;20096;-82
2021/10/15 02:07:37;;;;;;;17.02;4.22;;;14.00;99.90;;;;;;5092027;28;20130;-82
2021/10/15 02:10:05;;;;;;;14.50;3.95;;;14.00;99.90;;;;;;5105879;27;20043;-82
2021/10/15 02:12:30;;;;;;;12.15;3.90;;;14.00;99.90;;;;;;5121303;27;20122;-82
2021/10/15 02:14:56;;;;;;;20.80;5.30;;;14.00;99.90;;;;;;5109950;28;20192;-82
2021/10/15 02:17:22;;;;;;;18.20;5.03;;;14.10;99.90;;;;;;5089581;28;20139;-82
2021/10/15 02:19:47;;;;;;;21.48;4.60;;;14.10;99.90;;;;;;5126866;27;20048;-82
2021/10/15 02:22:13;;;;;;;16.38;5.28;;;14.00;99.90;;;;;;5087944;28;20087;-82
2021/10/15 02:24:39;;;;;;;20.02;4.88;;;14.10;99.90;;;;;;5104800;28;20055;-82
2021/10/15 02:27:05;;;;;;;23.33;4.85;;;14.10;99.90;;;;;;5118162;27;20046;-82
2021/10/15 02:29:31;;;;;;;18.42;4.75;;;14.10;99.90;;;;;;5105913;28;20505;-82
2021/10/15 02:31:56;;;;;;;17.02;4.38;;;14.00;99.90;;;;;;5097506;28;20048;-82
2021/10/15 02:34:22;;;;;;;18.50;4.72;;;14.00;99.90;;;;;;5124244;27;20499;-82
2021/10/15 02:36:48;;;;;;;16.90;4.47;;;14.00;99.90;;;;;;5099444;27;20402;-82
2021/10/15 02:39:14;;;;;;;19.70;4.20;;;14.00;99.90;;;;;;5097573;28;20104;-82
2021/10/15 02:41:40;;;;;;;19.27;5.25;;;14.00;99.90;;;;;;5095773;27;20130;-82
2021/10/15 02:44:07;;;;;;;22.42;5.15;;;14.00;99.90;;;;;;5128466;27;20042;-82
2021/10/15 02:46:33;;;;;;;23.52;4.80;;;14.00;99.90;;;;;;5086743;28;20039;-82
2021/10/15 02:48:59;;;;;;;20.58;5.38;;;14.00;99.90;;;;;;5116802;27;20041;-82
2021/10/15 02:51:25;;;;;;;16.98;4.68;;;14.00;99.90;;;;;;5108034;28;20052;-82
2021/10/15 02:53:51;;;;;;;19.88;4.97;;;14.00;99.90;;;;;;5111310;27;20047;-82
2021/10/15 02:56:16;;;;;;;16.02;4.10;;;14.00;99.90;;;;;;5111546;27;20047;-82
2021/10/15 02:58:42;;;;;;;16.50;4.10;;;14.00;99.90;;;;;;5100728;27;20542;-82
2021/10/15 03:01:08;;;;;;;21.05;4.45;;;14.00;99.90;;;;;;5111015;28;20051;-82
2021/10/15 03:03:34;;;;;;;16.02;4.63;;;14.00;99.90;;;;;;5112526;28;20044;-82
2021/10/15 03:06:00;;;;;;;20.30;5.18;;;14.00;99.90;;;;;;5095829;28;20529;-82
2021/10/15 03:08:26;;;;;;;17.02;5.07;;;14.00;99.90;;;;;;5111684;28;20043;-82
2021/10/15 03:10:51;;;;;;;17.25;4.55;;;14.00;99.90;;;;;;5128136;28;20379;-82
2021/10/15 03:13:17;;;;;;;17.63;5.35;;;14.00;99.90;;;;;;5090099;28;20051;-82
2021/10/15 03:15:43;;;;;;;18.23;4.30;;;14.00;99.90;;;;;;5093877;28;20046;-82
2021/10/15 03:18:09;;;;;;;19.77;4.65;;;14.00;99.90;;;;;;5102932;28;20044;-82
2021/10/15 03:20:35;;;;;;;18.42;4.07;;;14.00;99.90;;;;;;5107301;28;20471;-82
2021/10/15 03:23:04;;;;;;;12.30;4.28;;;14.00;99.90;;;;;;5079519;28;20521;-82
2021/10/15 03:25:30;;;;;;;18.35;5.65;;;14.00;99.90;;;;;;5111432;28;20096;-81
2021/10/15 03:27:56;;;;;;;19.52;5.53;;;14.00;99.90;;;;;;5108662;28;20039;-82
2021/10/15 03:30:22;;;;;;;18.20;4.18;;;14.00;99.90;;;;;;5128374;27;20044;-82
2021/10/15 03:32:47;;;;;;;20.83;4.45;;;14.00;99.90;;;;;;5092879;28;20592;-82
2021/10/15 03:35:13;;;;;;;15.05;4.50;;;14.00;99.90;;;;;;5090860;28;20145;-82
2021/10/15 03:37:39;;;;;;;21.65;4.60;;;14.00;99.90;;;;;;5091554;28;20122;-82
2021/10/15 03:40:06;;;;;;;18.20;4.22;;;14.00;99.90;;;;;;5074863;28;20040;-82
2021/10/15 03:42:32;;;;;;;15.45;4.15;;;14.00;99.90;;;;;;5124726;27;20044;-82
2021/10/15 03:44:58;;;;;;;23.80;5.00;;;14.00;99.90;;;;;;5107005;28;20126;-81
2021/10/15 03:47:23;;;;;;;24.00;4.88;;;14.00;99.90;;;;;;5107628;28;20126;-82
2021/10/15 03:49:49;;;;;;;13.75;4.38;;;13.90;99.90;;;;;;5101454;28;20075;-82
2021/10/15 03:52:15;;;;;;;15.57;4.30;;;13.90;99.90;;;;;;5128234;27;20050;-82
2021/10/15 03:54:41;;;;;;;20.92;5.47;;;13.80;99.90;;;;;;5128202;27;20414;-82
2021/10/15 03:57:07;;;;;;;47.08;6.65;;;13.70;99.90;;;;;;5094434;27;20126;-82
2021/10/15 03:59:33;;;;;;;47.42;8.73;;;13.50;99.90;;;;;;5121377;27;20126;-82
2021/10/15 04:01:59;;;;;;;43.47;10.15;;;13.20;99.90;;;;;;5110817;28;20104;-81
2021/10/15 04:04:25;;;;;;;33.13;10.27;;;13.20;99.90;;;;;;5100461;27;20051;-82
2021/10/15 04:06:50;;;;;;;27.70;9.00;;;12.60;99.90;;;;;;5131751;27;20134;-82
2021/10/15 04:09:16;;;;;;;27.35;9.13;;;12.50;99.90;;;;;;5098911;27;20035;-82
2021/10/15 04:11:42;;;;;;;26.20;8.38;;;12.70;99.90;;;;;;5097278;27;20047;-82
2021/10/15 04:14:08;;;;;;;34.28;9.82;;;13.10;99.90;;;;;;5113054;27;20051;-82
2021/10/15 04:16:33;;;;;;;28.85;9.73;;;12.80;99.90;;;;;;5128002;27;20109;-82
2021/10/15 04:18:59;;;;;;;33.22;10.43;;;12.60;99.90;;;;;;5109959;27;20051;-81
2021/10/15 04:21:25;;;;;;;36.78;10.18;;;12.50;99.90;;;;;;5111052;27;20043;-82
2021/10/15 04:23:51;;;;;;;33.88;10.25;;;13.00;99.90;;;;;;5110460;27;20043;-82
2021/10/15 04:26:17;;;;;;;37.22;10.63;;;12.80;99.90;;;;;;5124551;27;20039;-82
2021/10/15 04:28:43;;;;;;;33.20;10.23;;;12.50;99.90;;;;;;5111255;28;20137;-82
2021/10/15 04:31:09;;;;;;;47.17;12.63;;;13.30;99.90;;;;;;5107046;27;20558;-82
2021/10/15 04:33:35;;;;;;;41.40;11.88;;;13.10;99.90;;;;;;5131191;27;20043;-82
2021/10/15 04:36:01;;;;;;;59.22;13.15;;;12.70;99.90;;;;;;5081194;28;20516;-82
2021/10/15 04:38:26;;;;;;;56.70;12.50;;;13.80;99.90;;;;;;5104066;27;20035;-82
2021/10/15 04:40:52;;;;;;;8.48;2.20;;;12.40;99.90;;;;;;5105166;28;20070;-81
2021/10/15 04:43:18;;;;;;;12.07;1.10;;;13.20;99.90;;;;;;5059839;28;20482;-81
2021/10/15 04:45:43;;;;;;;15.60;1.10;;;12.40;99.90;;;;;;5097574;27;20039;-81
2021/10/15 04:48:09;;;;;;;9.23;1.55;;;12.10;99.90;;;;;;5118493;27;20050;-81
2021/10/15 04:50:36;;;;;;;13.60;1.17;;;12.30;99.90;;;;;;5081539;27;21233;-81
2021/10/15 04:53:06;;;;;;;10.85;1.45;;;11.30;99.90;;;;;;5076355;28;20043;-81
2021/10/15 04:55:32;;;;;;;11.82;1.33;;;11.70;99.90;;;;;;5100015;27;20047;-82
2021/10/15 04:58:00;;;;;;;14.70;1.60;;;11.00;99.90;;;;;;5120644;27;20047;-81
2021/10/15 05:00:30;;;;;;;12.15;1.83;;;11.50;99.90;;;;;;5106736;28;20055;-82
2021/10/15 05:02:56;;;;;;;17.63;1.63;;;10.80;99.90;;;;;;5106441;27;20084;-82
2021/10/15 05:05:27;;;;;;;23.88;1.65;;;10.80;99.90;;;;;;5097587;28;20044;-81
2021/10/15 05:07:56;;;;;;;15.27;1.13;;;11.30;99.90;;;;;;5105623;28;20415;-81
2021/10/15 05:10:23;;;;;;;15.27;1.80;;;11.30;99.90;;;;;;5095093;27;20056;-81
2021/10/15 05:12:52;;;;;;;13.43;1.30;;;10.50;99.90;;;;;;5128673;27;20107;-81
2021/10/15 05:15:19;;;;;;;18.25;2.15;;;11.30;99.90;;;;;;5097020;27;20089;-81
2021/10/15 05:17:46;;;;;;;16.05;2.30;;;11.20;99.90;;;;;;5086089;27;20043;-81
2021/10/15 05:20:15;;;;;;;26.63;2.25;;;10.50;99.90;;;;;;5080309;28;20075;-81
2021/10/15 05:22:42;;;;;;;21.30;1.83;;;11.20;99.90;;;;;;5113238;27;20451;-81
2021/10/15 05:25:09;;;;;;;22.42;2.20;;;11.10;99.90;;;;;;5093769;27;20498;-81
2021/10/15 05:27:35;;;;;;;14.70;1.50;;;10.40;99.90;;;;;;5117998;27;20045;-81
2021/10/15 05:30:02;;;;;;;14.98;1.85;;;10.60;99.90;;;;;;5113055;27;20063;-81
2021/10/15 05:32:27;;;;;;;38.58;2.10;;;10.30;99.90;;;;;;5118866;27;20096;-81
2021/10/15 05:34:53;;;;;;;20.40;1.98;;;10.40;99.90;;;;;;5089373;28;20047;-81
2021/10/15 05:37:19;;;;;;;20.70;1.63;;;10.40;99.90;;;;;;5094954;27;20043;-81
2021/10/15 05:39:45;;;;;;;18.23;1.52;;;10.20;99.90;;;;;;5074963;28;20371;-81
2021/10/15 05:42:11;;;;;;;13.93;1.30;;;11.10;99.90;;;;;;5077446;27;20031;-81
2021/10/15 05:44:37;;;;;;;23.73;2.10;;;10.10;99.90;;;;;;5092935;28;20497;-81
2021/10/15 05:47:06;;;;;;;25.02;1.65;;;10.20;99.90;;;;;;5110701;27;20050;-81
2021/10/15 05:49:34;;;;;;;33.28;2.22;;;11.00;99.90;;;;;;5103220;28;20032;-81
2021/10/15 05:52:05;;;;;;;19.45;1.38;;;10.20;99.90;;;;;;5088932;28;20406;-81
2021/10/15 05:54:42;;;;;;;19.63;1.67;;;10.20;99.90;;;;;;5088021;28;20156;-81
2021/10/15 05:59:40;;;;;;;17.17;2.35;;;10.80;99.90;;;;;;5088544;28;20044;-81
2021/10/15 06:02:07;;;;;;;19.52;2.40;;;11.00;99.90;;;;;;5088248;28;20124;-81
2021/10/15 06:15:33;;;;;;;13.43;1.90;;;10.40;99.90;;;;;;5108598;28;20047;-81
2021/10/15 06:17:59;;;;;;;32.10;1.95;;;10.80;99.90;;;;;;5109188;27;20551;-81
2021/10/15 06:20:25;;;;;;;24.05;2.67;;;11.10;99.90;;;;;;5111049;27;20051;-82
2021/10/15 06:22:51;;;;;;;17.63;1.83;;;10.70;99.90;;;;;;5090955;28;20146;-81
2021/10/15 06:25:16;;;;;;;25.25;1.80;;;10.70;99.90;;;;;;5090390;28;20040;-81
2021/10/15 06:27:42;;;;;;;17.98;1.35;;;10.60;99.90;;;;;;5090319;28;20129;-81
2021/10/15 06:30:08;;;;;;;13.35;1.50;;;11.20;99.90;;;;;;5112372;27;20054;-81
2021/10/15 06:32:34;;;;;;;8.18;1.13;;;10.40;99.90;;;;;;5089006;28;20495;-81
2021/10/15 06:35:00;;;;;;;13.50;1.00;;;10.30;99.90;;;;;;5108109;28;20050;-81
2021/10/15 06:37:26;;;;;;;6.20;1.10;;;10.60;99.90;;;;;;5091666;28;20397;-81
2021/10/15 06:39:52;;;;;;;15.32;2.42;;;10.50;99.90;;;;;;5075527;28;20138;-81
2021/10/15 06:42:18;;;;;;;16.65;1.33;;;10.10;99.90;;;;;;5090676;28;20043;-81
2021/10/15 06:44:44;;;;;;;13.15;1.20;;;10.80;99.90;;;;;;5111553;27;20047;-81
2021/10/15 06:47:10;;;;;;;8.73;1.30;;;10.80;99.90;;;;;;5090944;28;20043;-83
2021/10/15 06:49:36;;;;;;;18.20;1.25;;;11.00;99.90;;;;;;5077543;27;20045;-81
2021/10/15 06:52:02;;;;;;;9.75;1.40;;;10.20;99.90;;;;;;5131775;27;20491;-82
2021/10/15 06:54:29;;;;;;;12.65;1.17;;;10.90;99.90;;;;;;5105331;28;20082;-81
2021/10/15 06:56:54;;;;;;;12.57;1.30;;;10.70;99.90;;;;;;5081116;28;20043;-82
2021/10/15 06:59:24;;;;;;;22.17;2.22;;;10.10;99.90;;;;;;5134014;27;20051;-83
2021/10/15 07:01:50;;;;;;;17.33;1.55;;;10.50;99.90;;;;;;5069288;28;20499;-84
2021/10/15 07:04:16;;;;;;;21.38;2.13;;;10.90;99.90;;;;;;5106236;28;20510;-85
2021/10/15 07:06:42;;;;;;;15.77;1.98;;;10.10;99.90;;;;;;5142638;27;20042;-85
2021/10/15 07:09:07;;;;;;;19.20;2.00;;;10.90;99.90;;;;;;5091070;28;20518;-86
2021/10/15 07:11:38;;;;;;;17.92;1.55;;;11.00;99.90;;;;;;5072620;28;20559;-85
2021/10/15 07:14:04;;;;;;;19.50;1.50;;;10.40;99.90;;;;;;5091143;28;20055;-84
2021/10/15 07:16:30;;;;;;;10.80;1.30;;;11.00;99.90;;;;;;5107522;28;20054;-84
2021/10/15 07:18:55;;;;;;;15.55;1.77;;;10.60;99.90;;;;;;5069653;28;20040;-84
2021/10/15 07:21:21;;;;;;;29.65;1.63;;;10.30;99.90;;;;;;5070713;28;20419;-84
2021/10/15 07:23:47;;;;;;;11.93;1.30;;;10.10;99.90;;;;;;5071179;28;20138;-84
2021/10/15 07:26:12;;;;;;;24.70;1.50;;;11.00;99.90;;;;;;5069723;28;20036;-85
2021/10/15 07:28:38;;;;;;;18.20;1.67;;;10.50;99.90;;;;;;5090748;28;20052;-84
2021/10/15 07:31:04;;;;;;;15.30;1.70;;;10.00;99.90;;;;;;5058146;28;20043;-83
2021/10/15 07:33:30;;;;;;;25.63;2.83;;;10.90;99.90;;;;;;5098348;28;20406;-83
2021/10/15 07:35:56;;;;;;;15.23;2.40;;;10.10;99.90;;;;;;5076658;28;20045;-83
2021/10/15 07:38:21;;;;;;;17.15;2.08;;;9.90;99.90;;;;;;5111296;28;20038;-82
2021/10/15 07:40:47;;;;;;;17.67;2.22;;;10.80;99.90;;;;;;5092761;28;20039;-83
2021/10/15 07:43:13;;;;;;;23.08;2.22;;;10.80;99.90;;;;;;5092850;28;20047;-84
2021/10/15 07:45:39;;;;;;;18.27;2.53;;;10.90;99.90;;;;;;5094422;28;20036;-83
2021/10/15 07:48:04;;;;;;;22.48;2.60;;;10.00;99.90;;;;;;5094515;28;20047;-85
2021/10/15 07:50:30;;;;;;;16.58;1.95;;;10.80;99.90;;;;;;5076448;28;20563;-85
2021/10/15 07:52:57;;;;;;;17.63;1.60;;;11.10;99.90;;;;;;5077181;28;20039;-87
2021/10/15 07:55:24;;;;;;;21.35;2.08;;;10.80;99.90;;;;;;5110649;28;20043;-88
2021/10/15 07:57:50;;;;;;;12.93;1.70;;;11.10;99.90;;;;;;5122019;27;20039;-85
2021/10/15 08:00:16;;;;;;;24.67;2.10;;;10.10;99.90;;;;;;5093609;28;20039;-85
2021/10/15 08:02:41;;;;;;;19.60;1.92;;;10.30;99.90;;;;;;5110318;28;20036;-87
2021/10/15 08:05:08;;;;;;;16.33;1.88;;;11.00;99.90;;;;;;5095246;28;20044;-89
2021/10/15 08:07:34;;;;;;;28.73;2.92;;;10.30;99.90;;;;;;5079563;28;20112;-88
2021/10/15 08:09:59;;;;;;;21.85;2.17;;;10.30;99.90;;;;;;5126595;27;20486;-85
2021/10/15 08:12:25;;;;;;;20.92;2.33;;;11.10;99.90;;;;;;5092152;28;20044;-83
2021/10/15 08:14:51;;;;;;;25.73;3.25;;;10.30;99.90;;;;;;5085838;28;20075;-83
2021/10/15 08:17:16;;;;;;;16.95;1.85;;;11.40;99.90;;;;;;5123608;27;20140;-83
2021/10/15 08:19:43;;;;;;;20.42;3.15;;;11.30;99.90;;;;;;5092398;28;20479;-81
2021/10/15 08:22:08;;;;;;;17.48;2.25;;;11.30;99.90;;;;;;5108577;27;20463;-83
2021/10/15 08:24:35;;;;;;;10.50;1.50;;;10.20;99.90;;;;;;5127392;27;20073;-82
2021/10/15 08:27:01;;;;;;;13.00;1.70;;;11.20;99.90;;;;;;5104839;28;20056;-82
2021/10/15 08:29:26;;;;;;;16.15;2.20;;;11.10;99.90;;;;;;5090993;28;20035;-82
2021/10/15 08:31:52;;;;;;;17.52;3.00;;;11.20;99.90;;;;;;5090907;28;20042;-82
2021/10/15 08:34:19;;;;;;;14.82;2.88;;;10.20;99.90;;;;;;5091901;28;20035;-83
2021/10/15 08:36:45;;;;;;;21.33;2.75;;;10.20;99.90;;;;;;5072969;28;20513;-83
2021/10/15 08:39:12;;;;;;;19.40;2.53;;;11.10;99.90;;;;;;5109224;28;20079;-83
2021/10/15 08:41:37;;;;;;;23.08;2.95;;;10.40;99.90;;;;;;5080698;28;20152;-84
2021/10/15 08:44:04;;;;;;;20.50;2.13;;;11.10;99.90;;;;;;5109175;27;20148;-83
2021/10/15 08:46:31;;;;;;;12.32;1.85;;;10.10;99.90;;;;;;5091312;28;20051;-82
2021/10/15 08:48:57;;;;;;;16.95;2.33;;;11.10;99.90;;;;;;5094244;27;20075;-83
2021/10/15 08:51:23;;;;;;;23.50;3.75;;;10.20;99.90;;;;;;5075221;28;20035;-85
2021/10/15 08:53:52;;;;;;;26.70;3.15;;;11.20;99.90;;;;;;5133436;27;20047;-83
2021/10/15 08:56:20;;;;;;;26.48;2.47;;;10.70;99.90;;;;;;5090217;28;20042;-83
2021/10/15 08:58:51;;;;;;;24.80;3.13;;;10.70;99.90;;;;;;5128355;27;20043;-83
2021/10/15 09:01:17;;;;;;;22.98;2.75;;;10.70;99.90;;;;;;5088205;28;20032;-83
2021/10/15 09:03:43;;;;;;;17.38;2.20;;;10.10;99.90;;;;;;5097214;27;20040;-83
2021/10/15 09:06:10;;;;;;;24.45;2.55;;;11.10;99.90;;;;;;5068418;28;21537;-83
2021/10/15 09:08:47;;;;;;;26.10;3.03;;;10.60;99.90;;;;;;5093975;28;20398;-83
2021/10/15 09:11:32;;;;;;;23.55;3.80;;;10.20;99.90;;;;;;5107897;27;20043;-83
2021/10/15 09:14:17;;;;;;;23.88;3.30;;;10.60;99.90;;;;;;5099769;27;20100;-83
2021/10/15 09:17:01;;;;;;;27.20;3.03;;;11.20;99.90;;;;;;5109436;27;20056;-82
2021/10/15 09:19:33;;;;;;;25.67;2.80;;;10.30;99.90;;;;;;5108118;27;20188;-83
2021/10/15 09:22:13;;;;;;;27.70;3.55;;;11.10;99.90;;;;;;5126281;27;20040;-83
2021/10/15 09:24:51;;;;;;;27.13;2.78;;;10.50;99.90;;;;;;5093248;28;20139;-82
2021/10/15 09:27:22;;;;;;;26.73;3.90;;;11.10;99.90;;;;;;5081692;28;20050;-83
2021/10/15 09:29:51;;;;;;;22.05;3.75;;;10.30;99.90;;;;;;5094366;27;20035;-83
2021/10/15 09:32:20;;;;;;;26.60;3.42;;;10.50;99.90;;;;;;5111894;27;20149;-82
2021/10/15 09:34:46;;;;;;;34.88;3.83;;;10.40;99.90;;;;;;5111455;27;20708;-83
2021/10/15 09:37:24;;;;;;;22.77;3.08;;;11.10;99.90;;;;;;5094430;27;20039;-82
2021/10/15 09:39:50;;;;;;;31.13;3.15;;;10.30;99.90;;;;;;5107903;27;20044;-83
2021/10/15 09:42:40;;;;;;;27.48;3.28;;;10.30;99.90;;;;;;5075085;28;20088;-83
2021/10/15 09:45:15;;;;;;;27.13;3.45;;;10.30;99.90;;;;;;5092199;27;20141;-82
2021/10/15 09:48:02;;;;;;;23.30;3.85;;;11.10;99.90;;;;;;5123661;27;20044;-84
2021/10/15 09:50:34;;;;;;;20.27;3.30;;;10.30;99.90;;;;;;5090158;28;20036;-84
2021/10/15 09:53:03;;;;;;;21.05;2.72;;;10.90;99.90;;;;;;5108979;28;20052;-83
2021/10/15 09:55:40;;;;;;;23.38;2.75;;;10.20;99.90;;;;;;5125973;27;20079;-84
2021/10/15 09:58:12;;;;;;;21.00;3.95;;;10.90;99.90;;;;;;5108877;28;20555;-84
2021/10/15 10:00:38;;;;;;;27.23;3.33;;;10.40;99.90;;;;;;5127692;27;20039;-84
2021/10/15 10:03:04;;;;;;;28.75;3.42;;;10.40;99.90;;;;;;5098973;28;20051;-84
2021/10/15 10:05:30;;;;;;;25.02;3.40;;;10.40;99.90;;;;;;5108597;27;20070;-83
2021/10/15 10:07:57;;;;;;;22.83;4.18;;;10.50;99.90;;;;;;5107706;28;20034;-84
2021/10/15 10:10:29;;;;;;;19.83;2.45;;;10.60;99.90;;;;;;5104367;27;20119;-85
2021/10/15 10:12:56;;;;;;;16.40;2.83;;;10.50;99.90;;;;;;5093353;28;20067;-84
2021/10/15 10:15:24;;;;;;;20.98;3.92;;;10.60;99.90;;;;;;5141492;27;20510;-86
2021/10/15 10:20:57;;;;;;;18.80;3.25;;;10.80;99.90;;;;;;5122583;27;20052;-84
2021/10/15 10:23:36;;;;;;;17.60;3.75;;;11.00;99.90;;;;;;5112970;27;20039;-84
2021/10/15 10:26:05;;;;;;;21.13;2.63;;;10.90;99.90;;;;;;5085647;27;20035;-84
2021/10/15 10:28:32;;;;;;;19.73;2.50;;;10.90;99.90;;;;;;5121723;27;20043;-84
2021/10/15 10:31:03;;;;;;;13.00;2.20;;;11.10;99.90;;;;;;5091797;28;20035;-84
2021/10/15 10:33:30;;;;;;;19.25;2.63;;;11.10;99.90;;;;;;5130092;27;20669;-84
2021/10/15 10:36:12;;;;;;;16.95;2.80;;;11.20;99.90;;;;;;5090765;28;20035;-84
2021/10/15 10:38:39;;;;;;;16.65;2.42;;;11.30;99.90;;;;;;5101245;28;20046;-84
2021/10/15 10:41:05;;;;;;;12.50;3.03;;;11.30;99.90;;;;;;5107573;27;20039;-84
2021/10/15 10:43:53;;;;;;;18.55;2.72;;;11.40;99.90;;;;;;5123838;27;20044;-83
2021/10/15 10:46:25;;;;;;;13.25;2.20;;;11.50;99.90;;;;;;5106774;28;20079;-83
2021/10/15 10:48:51;;;;;;;19.45;2.97;;;11.60;99.90;;;;;;5131646;27;20036;-83
2021/10/15 10:51:23;;;;;;;15.90;2.47;;;11.60;99.90;;;;;;5106843;28;20066;-83
2021/10/15 10:54:08;;;;;;;26.60;5.00;;;11.70;99.90;;;;;;5114441;27;20040;-84
2021/10/15 10:56:43;;;;;;;13.98;2.92;;;11.80;99.90;;;;;;5106784;28;20035;-84
2021/10/15 10:59:22;;;;;;;24.85;3.45;;;11.90;99.90;;;;;;5089881;28;20047;-84
2021/10/15 11:02:02;;;;;;;17.90;2.67;;;11.80;99.90;;;;;;5107677;28;20053;-85
2021/10/15 11:04:33;;;;;;;12.77;2.40;;;11.80;99.90;;;;;;5090216;28;20113;-85
2021/10/15 11:07:03;;;;;;;11.35;2.08;;;11.80;99.90;;;;;;5104574;28;20088;-84
2021/10/15 11:09:42;;;;;;;8.88;2.05;;;11.80;99.90;;;;;;5108023;28;20112;-84
2021/10/15 11:12:10;;;;;;;15.02;2.65;;;11.80;99.90;;;;;;5096819;28;20062;-83
2021/10/15 11:14:53;;;;;;;12.80;1.85;;;11.90;99.90;;;;;;5115400;28;20039;-84
2021/10/15 11:17:26;;;;;;;14.55;2.20;;;12.00;99.90;;;;;;5139984;27;20049;-83
2021/10/15 11:20:24;;;;;;;20.15;3.05;;;12.10;99.90;;;;;;5105145;28;20082;-83
2021/10/15 11:23:07;;;;;;;20.05;2.92;;;12.20;99.90;;;;;;5025631;28;20063;-84
2021/10/15 11:25:35;;;;;;;19.40;3.42;;;12.20;99.90;;;;;;5089406;28;20048;-84
2021/10/15 11:28:07;;;;;;;16.45;2.70;;;12.20;99.90;;;;;;5135739;27;20483;-84
2021/10/15 11:30:35;;;;;;;21.25;2.65;;;12.10;99.90;;;;;;5103375;28;20062;-84
2021/10/15 11:33:03;;;;;;;16.88;3.00;;;12.20;99.90;;;;;;5087332;28;20529;-83
2021/10/15 11:35:35;;;;;;;12.30;1.73;;;12.30;99.90;;;;;;5110240;28;20044;-84
2021/10/15 11:38:32;;;;;;;19.10;2.95;;;12.40;99.90;;;;;;5094558;28;20071;-84
2021/10/15 11:41:03;;;;;;;20.48;2.60;;;12.40;99.90;;;;;;5110992;28;20028;-84
2021/10/15 11:43:37;;;;;;;14.30;2.85;;;12.30;99.90;;;;;;5106354;28;20147;-84
2021/10/15 11:46:07;;;;;;;15.63;2.65;;;12.20;99.90;;;;;;5123203;28;20523;-84
2021/10/15 11:48:52;;;;;;;23.42;2.85;;;12.00;99.90;;;;;;5139328;27;20636;-84
2021/10/15 11:51:28;;;;;;;19.50;2.78;;;11.90;99.90;;;;;;5116273;28;20499;-84
2021/10/15 11:53:56;;;;;;;13.80;2.28;;;12.00;99.90;;;;;;5091057;28;20092;-84
2021/10/15 11:56:27;;;;;;;15.98;2.80;;;12.20;99.90;;;;;;5139978;27;20131;-84
2021/10/15 11:58:55;;;;;;;13.77;2.67;;;12.30;99.90;;;;;;5120451;28;20039;-84
2021/10/15 12:01:29;;;;;;;18.73;2.65;;;12.40;99.90;;;;;;5106468;28;20051;-84
2021/10/15 12:03:56;;;;;;;13.70;3.40;;;12.50;99.50;;;;;;5104767;28;20056;-83
2021/10/15 12:06:25;;;;;;;15.13;2.00;;;12.60;99.90;;;;;;5123365;28;20410;-84
2021/10/15 12:08:58;;;;;;;19.02;3.20;;;12.70;99.90;;;;;;5121959;28;20537;-83
2021/10/15 12:11:34;;;;;;;16.45;2.60;;;12.80;99.90;;;;;;5106350;28;20044;-83
2021/10/15 12:14:24;;;;;;;16.50;2.90;;;12.90;99.90;;;;;;5112407;27;20396;-83
2021/10/15 12:16:57;;;;;;;14.82;3.17;;;12.80;99.90;;;;;;5095646;28;20047;-84
2021/10/15 12:19:28;;;;;;;14.82;2.60;;;12.70;99.90;;;;;;5108384;28;20050;-83
2021/10/15 12:21:56;;;;;;;16.48;2.10;;;12.60;99.90;;;;;;5126972;27;20046;-83
2021/10/15 12:24:27;;;;;;;13.43;2.72;;;12.40;99.90;;;;;;5126184;27;20044;-84
2021/10/15 12:27:04;;;;;;;17.33;2.47;;;12.40;99.90;;;;;;5109014;28;20394;-84
2021/10/15 12:29:31;;;;;;;16.33;3.03;;;12.50;99.90;;;;;;5138365;27;20498;-83
2021/10/15 12:32:35;;;;;;;13.82;2.40;;;12.60;99.90;;;;;;5144262;27;20051;-83
2021/10/15 12:35:03;;;;;;;12.43;2.28;;;12.70;97.20;;;;;;5077078;28;20063;-83
2021/10/15 12:37:31;;;;;;;18.85;2.97;;;12.80;99.90;;;;;;5108883;28;20039;-83
2021/10/15 12:40:13;;;;;;;14.65;1.98;;;12.90;99.90;;;;;;5118408;27;20062;-84
2021/10/15 12:42:40;;;;;;;14.70;2.67;;;13.00;99.90;;;;;;5100351;28;20036;-84
2021/10/15 12:45:08;;;;;;;14.90;2.63;;;13.10;99.90;;;;;;5095262;27;20051;-87
2021/10/15 12:47:34;;;;;;;17.23;2.88;;;13.20;99.20;;;;;;5122681;27;20119;-84
2021/10/15 12:50:03;;;;;;;12.95;2.10;;;13.20;98.40;;;;;;5091494;27;20041;-84
2021/10/15 12:52:38;;;;;;;14.75;2.22;;;13.30;97.00;;;;;;5092958;28;20083;-85
2021/10/15 12:55:13;;;;;;;12.35;2.03;;;13.30;97.30;;;;;;5120020;27;20043;-85
2021/10/15 12:57:39;;;;;;;15.65;2.13;;;13.30;98.00;;;;;;5090334;28;20486;-85
2021/10/15 13:00:13;;;;;;;14.55;2.65;;;13.40;99.90;;;;;;5084799;28;20043;-84